sensor_id;sensor_type;location;lat;lon;timestamp;P1;durP1;ratioP1;P2;durP2;ratioP2
8564;SDS011;4320;51.498;6.556;2023-11-19T00:02:18;8.25;;;6.88;;
8564;SDS011;4320;51.498;6.556;2023-11-19T00:04:44;6.93;;;6.22;;
8564;SDS011;4320;51.498;6.556;2023-11-19T00:07:09;7.57;;;6.68;;
8564;SDS011;4320;51.498;6.556;2023-11-19T00:09:37;6.68;;;5.78;;
8564;SDS011;4320;51.498;6.556;2023-11-19T00:12:06;7.97;;;5.68;;
8564;SDS011;4320;51.498;6.556;2023-11-19T00:14:32;6.97;;;5.93;;
8564;SDS011;4320;51.498;6.556;2023-11-19T00:16:59;6.80;;;5.63;;
8564;SDS011;4320;51.498;6.556;2023-11-19T00:19:25;8.00;;;5.85;;
8564;SDS011;4320;51.498;6.556;2023-11-19T00:21:51;6.13;;;5.53;;
8564;SDS011;4320;51.498;6.556;2023-11-19T00:24:17;9.98;;;5.97;;
8564;SDS011;4320;51.498;6.556;2023-11-19T00:26:43;6.30;;;5.70;;
8564;SDS011;4320;51.498;6.556;2023-11-19T00:29:09;7.78;;;5.82;;
8564;SDS011;4320;51.498;6.556;2023-11-19T00:31:35;5.80;;;5.20;;
8564;SDS011;4320;51.498;6.556;2023-11-19T00:34:01;9.90;;;6.22;;
8564;SDS011;4320;51.498;6.556;2023-11-19T00:36:27;7.03;;;5.40;;
8564;SDS011;4320;51.498;6.556;2023-11-19T00:38:53;8.15;;;5.65;;
8564;SDS011;4320;51.498;6.556;2023-11-19T00:41:19;8.60;;;5.80;;
8564;SDS011;4320;51.498;6.556;2023-11-19T00:43:45;8.85;;;6.00;;
8564;SDS011;4320;51.498;6.556;2023-11-19T00:46:11;7.57;;;6.20;;
8564;SDS011;4320;51.498;6.556;2023-11-19T00:48:38;7.90;;;5.47;;
8564;SDS011;4320;51.498;6.556;2023-11-19T00:51:04;7.13;;;5.15;;
8564;SDS011;4320;51.498;6.556;2023-11-19T00:53:30;6.25;;;5.20;;
8564;SDS011;4320;51.498;6.556;2023-11-19T00:55:57;5.93;;;5.30;;
8564;SDS011;4320;51.498;6.556;2023-11-19T00:58:22;7.00;;;5.13;;
8564;SDS011;4320;51.498;6.556;2023-11-19T01:00:48;6.88;;;5.47;;
8564;SDS011;4320;51.498;6.556;2023-11-19T01:03:14;6.10;;;4.47;;
8564;SDS011;4320;51.498;6.556;2023-11-19T01:05:40;8.88;;;6.10;;
8564;SDS011;4320;51.498;6.556;2023-11-19T01:08:06;6.82;;;4.40;;
8564;SDS011;4320;51.498;6.556;2023-11-19T01:10:33;5.10;;;3.78;;
8564;SDS011;4320;51.498;6.556;2023-11-19T01:12:59;4.68;;;3.63;;
8564;SDS011;4320;51.498;6.556;2023-11-19T01:15:24;5.43;;;4.35;;
8564;SDS011;4320;51.498;6.556;2023-11-19T01:17:50;5.22;;;3.65;;
8564;SDS011;4320;51.498;6.556;2023-11-19T01:20:16;6.20;;;3.60;;
8564;SDS011;4320;51.498;6.556;2023-11-19T01:22:42;4.63;;;3.50;;
8564;SDS011;4320;51.498;6.556;2023-11-19T01:25:08;4.25;;;3.55;;
8564;SDS011;4320;51.498;6.556;2023-11-19T01:27:34;4.82;;;3.45;;
8564;SDS011;4320;51.498;6.556;2023-11-19T01:30:00;5.55;;;4.00;;
8564;SDS011;4320;51.498;6.556;2023-11-19T01:32:28;5.93;;;3.63;;
8564;SDS011;4320;51.498;6.556;2023-11-19T01:34:53;4.22;;;3.63;;
8564;SDS011;4320;51.498;6.556;2023-11-19T01:37:19;4.03;;;3.55;;
8564;SDS011;4320;51.498;6.556;2023-11-19T01:39:45;4.00;;;3.60;;
8564;SDS011;4320;51.498;6.556;2023-11-19T01:42:11;4.15;;;3.40;;
8564;SDS011;4320;51.498;6.556;2023-11-19T01:44:40;4.72;;;3.65;;
8564;SDS011;4320;51.498;6.556;2023-11-19T01:47:06;5.78;;;3.88;;
8564;SDS011;4320;51.498;6.556;2023-11-19T01:49:32;4.72;;;3.40;;
8564;SDS011;4320;51.498;6.556;2023-11-19T01:51:58;4.03;;;3.58;;
8564;SDS011;4320;51.498;6.556;2023-11-19T01:54:24;6.13;;;3.83;;
8564;SDS011;4320;51.498;6.556;2023-11-19T01:56:50;6.97;;;3.88;;
8564;SDS011;4320;51.498;6.556;2023-11-19T01:59:18;7.75;;;4.13;;
8564;SDS011;4320;51.498;6.556;2023-11-19T02:01:45;7.65;;;4.40;;
8564;SDS011;4320;51.498;6.556;2023-11-19T02:04:11;8.90;;;4.47;;
8564;SDS011;4320;51.498;6.556;2023-11-19T02:06:37;8.43;;;4.45;;
8564;SDS011;4320;51.498;6.556;2023-11-19T02:09:05;8.82;;;4.47;;
8564;SDS011;4320;51.498;6.556;2023-11-19T02:11:33;6.13;;;3.97;;
8564;SDS011;4320;51.498;6.556;2023-11-19T02:13:59;5.97;;;4.05;;
8564;SDS011;4320;51.498;6.556;2023-11-19T02:16:25;6.78;;;4.00;;
8564;SDS011;4320;51.498;6.556;2023-11-19T02:18:51;9.63;;;4.00;;
8564;SDS011;4320;51.498;6.556;2023-11-19T02:21:16;10.07;;;4.07;;
8564;SDS011;4320;51.498;6.556;2023-11-19T02:23:43;5.70;;;3.88;;
8564;SDS011;4320;51.498;6.556;2023-11-19T02:28:51;9.07;;;3.83;;
8564;SDS011;4320;51.498;6.556;2023-11-19T02:31:17;9.70;;;3.85;;
8564;SDS011;4320;51.498;6.556;2023-11-19T02:33:44;9.98;;;3.90;;
8564;SDS011;4320;51.498;6.556;2023-11-19T02:36:09;9.60;;;3.80;;
8564;SDS011;4320;51.498;6.556;2023-11-19T02:38:35;8.57;;;3.33;;
8564;SDS011;4320;51.498;6.556;2023-11-19T02:41:05;12.82;;;3.63;;
8564;SDS011;4320;51.498;6.556;2023-11-19T02:43:32;6.88;;;3.40;;
8564;SDS011;4320;51.498;6.556;2023-11-19T02:45:59;10.32;;;4.15;;
8564;SDS011;4320;51.498;6.556;2023-11-19T02:48:26;7.68;;;3.20;;
8564;SDS011;4320;51.498;6.556;2023-11-19T02:50:51;7.28;;;3.13;;
8564;SDS011;4320;51.498;6.556;2023-11-19T02:53:17;10.50;;;3.35;;
8564;SDS011;4320;51.498;6.556;2023-11-19T02:55:43;9.95;;;3.50;;
8564;SDS011;4320;51.498;6.556;2023-11-19T02:58:13;10.60;;;3.40;;
8564;SDS011;4320;51.498;6.556;2023-11-19T03:00:48;6.45;;;3.55;;
8564;SDS011;4320;51.498;6.556;2023-11-19T03:03:25;11.98;;;3.20;;
8564;SDS011;4320;51.498;6.556;2023-11-19T03:06:04;11.18;;;3.42;;
8564;SDS011;4320;51.498;6.556;2023-11-19T03:08:30;12.27;;;3.35;;
8564;SDS011;4320;51.498;6.556;2023-11-19T03:10:56;9.65;;;3.15;;
8564;SDS011;4320;51.498;6.556;2023-11-19T03:13:21;10.63;;;4.03;;
8564;SDS011;4320;51.498;6.556;2023-11-19T03:15:47;14.80;;;3.65;;
8564;SDS011;4320;51.498;6.556;2023-11-19T03:18:12;9.38;;;3.35;;
8564;SDS011;4320;51.498;6.556;2023-11-19T03:20:38;10.23;;;3.20;;
8564;SDS011;4320;51.498;6.556;2023-11-19T03:23:04;14.27;;;3.90;;
8564;SDS011;4320;51.498;6.556;2023-11-19T03:25:31;13.30;;;3.50;;
8564;SDS011;4320;51.498;6.556;2023-11-19T03:28:01;11.40;;;3.97;;
8564;SDS011;4320;51.498;6.556;2023-11-19T03:30:28;17.80;;;3.60;;
8564;SDS011;4320;51.498;6.556;2023-11-19T03:32:55;12.63;;;3.90;;
8564;SDS011;4320;51.498;6.556;2023-11-19T03:35:21;15.23;;;3.70;;
8564;SDS011;4320;51.498;6.556;2023-11-19T03:37:47;17.65;;;4.70;;
8564;SDS011;4320;51.498;6.556;2023-11-19T03:40:12;12.73;;;3.63;;
8564;SDS011;4320;51.498;6.556;2023-11-19T03:42:38;15.82;;;3.97;;
8564;SDS011;4320;51.498;6.556;2023-11-19T03:45:07;16.45;;;4.07;;
8564;SDS011;4320;51.498;6.556;2023-11-19T03:47:35;16.80;;;4.15;;
8564;SDS011;4320;51.498;6.556;2023-11-19T03:50:01;20.33;;;4.50;;
8564;SDS011;4320;51.498;6.556;2023-11-19T03:52:27;17.42;;;3.97;;
8564;SDS011;4320;51.498;6.556;2023-11-19T03:54:54;17.08;;;4.10;;
8564;SDS011;4320;51.498;6.556;2023-11-19T03:57:20;17.85;;;4.47;;
8564;SDS011;4320;51.498;6.556;2023-11-19T03:59:46;15.45;;;3.95;;
8564;SDS011;4320;51.498;6.556;2023-11-19T04:02:12;17.55;;;3.80;;
8564;SDS011;4320;51.498;6.556;2023-11-19T04:04:37;20.58;;;4.07;;
8564;SDS011;4320;51.498;6.556;2023-11-19T04:07:06;20.35;;;4.35;;
8564;SDS011;4320;51.498;6.556;2023-11-19T04:09:32;15.27;;;4.40;;
8564;SDS011;4320;51.498;6.556;2023-11-19T04:12:02;19.38;;;4.00;;
8564;SDS011;4320;51.498;6.556;2023-11-19T04:14:28;17.67;;;4.25;;
8564;SDS011;4320;51.498;6.556;2023-11-19T04:16:54;14.63;;;4.38;;
8564;SDS011;4320;51.498;6.556;2023-11-19T04:19:20;18.77;;;4.05;;
8564;SDS011;4320;51.498;6.556;2023-11-19T04:21:46;19.20;;;3.72;;
8564;SDS011;4320;51.498;6.556;2023-11-19T04:24:11;13.18;;;4.18;;
8564;SDS011;4320;51.498;6.556;2023-11-19T04:26:43;20.52;;;4.38;;
8564;SDS011;4320;51.498;6.556;2023-11-19T04:29:13;16.67;;;4.10;;
8564;SDS011;4320;51.498;6.556;2023-11-19T04:31:40;25.50;;;5.03;;
8564;SDS011;4320;51.498;6.556;2023-11-19T04:34:06;24.92;;;5.32;;
8564;SDS011;4320;51.498;6.556;2023-11-19T04:36:32;18.25;;;4.40;;
8564;SDS011;4320;51.498;6.556;2023-11-19T04:38:58;20.00;;;5.03;;
8564;SDS011;4320;51.498;6.556;2023-11-19T04:41:25;24.73;;;5.25;;
8564;SDS011;4320;51.498;6.556;2023-11-19T04:43:52;24.58;;;5.63;;
8564;SDS011;4320;51.498;6.556;2023-11-19T04:46:18;25.77;;;4.57;;
8564;SDS011;4320;51.498;6.556;2023-11-19T04:48:44;16.92;;;4.32;;
8564;SDS011;4320;51.498;6.556;2023-11-19T04:51:09;22.40;;;4.57;;
8564;SDS011;4320;51.498;6.556;2023-11-19T04:53:35;21.02;;;4.63;;
8564;SDS011;4320;51.498;6.556;2023-11-19T04:56:01;19.83;;;6.10;;
8564;SDS011;4320;51.498;6.556;2023-11-19T04:58:32;18.48;;;4.97;;
8564;SDS011;4320;51.498;6.556;2023-11-19T05:00:58;19.80;;;4.82;;
8564;SDS011;4320;51.498;6.556;2023-11-19T05:03:24;21.63;;;4.95;;
8564;SDS011;4320;51.498;6.556;2023-11-19T05:05:50;25.77;;;5.72;;
8564;SDS011;4320;51.498;6.556;2023-11-19T05:08:15;18.63;;;4.15;;
8564;SDS011;4320;51.498;6.556;2023-11-19T05:10:41;23.70;;;5.55;;
8564;SDS011;4320;51.498;6.556;2023-11-19T05:13:06;22.25;;;4.80;;
8564;SDS011;4320;51.498;6.556;2023-11-19T05:15:32;21.02;;;4.68;;
8564;SDS011;4320;51.498;6.556;2023-11-19T05:17:58;25.95;;;5.32;;
8564;SDS011;4320;51.498;6.556;2023-11-19T05:20:24;23.75;;;4.50;;
8564;SDS011;4320;51.498;6.556;2023-11-19T05:22:49;21.63;;;4.65;;
8564;SDS011;4320;51.498;6.556;2023-11-19T05:25:16;29.45;;;5.40;;
8564;SDS011;4320;51.498;6.556;2023-11-19T05:27:42;21.38;;;5.20;;
8564;SDS011;4320;51.498;6.556;2023-11-19T05:30:08;25.15;;;5.60;;
8564;SDS011;4320;51.498;6.556;2023-11-19T05:32:35;24.17;;;4.90;;
8564;SDS011;4320;51.498;6.556;2023-11-19T05:35:01;18.85;;;4.35;;
8564;SDS011;4320;51.498;6.556;2023-11-19T05:37:27;23.50;;;5.18;;
8564;SDS011;4320;51.498;6.556;2023-11-19T05:39:52;24.30;;;5.15;;
8564;SDS011;4320;51.498;6.556;2023-11-19T05:42:18;26.80;;;4.65;;
8564;SDS011;4320;51.498;6.556;2023-11-19T05:44:43;25.27;;;5.20;;
8564;SDS011;4320;51.498;6.556;2023-11-19T05:47:09;18.10;;;4.45;;
8564;SDS011;4320;51.498;6.556;2023-11-19T05:49:35;20.10;;;5.00;;
8564;SDS011;4320;51.498;6.556;2023-11-19T05:52:00;19.73;;;4.50;;
8564;SDS011;4320;51.498;6.556;2023-11-19T05:54:28;23.02;;;4.88;;
8564;SDS011;4320;51.498;6.556;2023-11-19T05:56:54;30.45;;;5.75;;
8564;SDS011;4320;51.498;6.556;2023-11-19T05:59:20;23.00;;;4.97;;
8564;SDS011;4320;51.498;6.556;2023-11-19T06:01:47;24.90;;;5.47;;
8564;SDS011;4320;51.498;6.556;2023-11-19T06:04:13;30.08;;;6.00;;
8564;SDS011;4320;51.498;6.556;2023-11-19T06:06:39;28.15;;;5.70;;
8564;SDS011;4320;51.498;6.556;2023-11-19T06:09:05;23.10;;;4.75;;
8564;SDS011;4320;51.498;6.556;2023-11-19T06:11:31;31.45;;;5.53;;
8564;SDS011;4320;51.498;6.556;2023-11-19T06:14:01;23.50;;;5.57;;
8564;SDS011;4320;51.498;6.556;2023-11-19T06:16:27;17.00;;;5.18;;
8564;SDS011;4320;51.498;6.556;2023-11-19T06:18:52;29.20;;;5.60;;
8564;SDS011;4320;51.498;6.556;2023-11-19T06:21:18;35.10;;;5.05;;
8564;SDS011;4320;51.498;6.556;2023-11-19T06:23:44;21.17;;;5.18;;
8564;SDS011;4320;51.498;6.556;2023-11-19T06:26:09;27.50;;;4.80;;
8564;SDS011;4320;51.498;6.556;2023-11-19T06:28:35;21.05;;;4.57;;
8564;SDS011;4320;51.498;6.556;2023-11-19T06:31:01;25.20;;;4.97;;
8564;SDS011;4320;51.498;6.556;2023-11-19T06:33:29;23.15;;;4.75;;
8564;SDS011;4320;51.498;6.556;2023-11-19T06:35:54;26.30;;;5.68;;
8564;SDS011;4320;51.498;6.556;2023-11-19T06:38:20;18.48;;;5.03;;
8564;SDS011;4320;51.498;6.556;2023-11-19T06:40:46;22.38;;;4.88;;
8564;SDS011;4320;51.498;6.556;2023-11-19T06:43:11;17.20;;;4.93;;
8564;SDS011;4320;51.498;6.556;2023-11-19T06:45:37;21.40;;;4.93;;
8564;SDS011;4320;51.498;6.556;2023-11-19T06:48:05;25.15;;;5.65;;
8564;SDS011;4320;51.498;6.556;2023-11-19T06:50:30;21.02;;;5.18;;
8564;SDS011;4320;51.498;6.556;2023-11-19T06:52:57;27.38;;;5.18;;
8564;SDS011;4320;51.498;6.556;2023-11-19T06:55:22;23.13;;;5.75;;
8564;SDS011;4320;51.498;6.556;2023-11-19T06:57:48;30.52;;;4.82;;
8564;SDS011;4320;51.498;6.556;2023-11-19T07:00:14;22.55;;;5.25;;
8564;SDS011;4320;51.498;6.556;2023-11-19T07:02:39;24.20;;;4.78;;
8564;SDS011;4320;51.498;6.556;2023-11-19T07:05:05;19.45;;;4.50;;
8564;SDS011;4320;51.498;6.556;2023-11-19T07:07:32;19.23;;;4.68;;
8564;SDS011;4320;51.498;6.556;2023-11-19T07:09:57;26.60;;;5.78;;
8564;SDS011;4320;51.498;6.556;2023-11-19T07:12:23;26.85;;;5.03;;
8564;SDS011;4320;51.498;6.556;2023-11-19T07:14:51;23.08;;;5.00;;
8564;SDS011;4320;51.498;6.556;2023-11-19T07:17:18;20.35;;;5.15;;
8564;SDS011;4320;51.498;6.556;2023-11-19T07:19:43;23.08;;;5.25;;
8564;SDS011;4320;51.498;6.556;2023-11-19T07:22:09;28.70;;;6.00;;
8564;SDS011;4320;51.498;6.556;2023-11-19T07:24:36;27.30;;;6.40;;
8564;SDS011;4320;51.498;6.556;2023-11-19T07:27:04;21.65;;;5.10;;
8564;SDS011;4320;51.498;6.556;2023-11-19T07:29:29;24.98;;;5.72;;
8564;SDS011;4320;51.498;6.556;2023-11-19T07:31:56;25.70;;;5.60;;
8564;SDS011;4320;51.498;6.556;2023-11-19T07:34:22;18.73;;;4.50;;
8564;SDS011;4320;51.498;6.556;2023-11-19T07:36:48;23.40;;;5.30;;
8564;SDS011;4320;51.498;6.556;2023-11-19T07:39:14;25.45;;;5.63;;
8564;SDS011;4320;51.498;6.556;2023-11-19T07:41:39;27.05;;;5.03;;
8564;SDS011;4320;51.498;6.556;2023-11-19T07:44:05;20.40;;;5.03;;
8564;SDS011;4320;51.498;6.556;2023-11-19T07:46:31;32.03;;;5.65;;
8564;SDS011;4320;51.498;6.556;2023-11-19T07:48:57;19.55;;;4.95;;
8564;SDS011;4320;51.498;6.556;2023-11-19T07:51:23;30.13;;;6.07;;
8564;SDS011;4320;51.498;6.556;2023-11-19T07:53:49;26.75;;;5.57;;
8564;SDS011;4320;51.498;6.556;2023-11-19T07:56:14;23.33;;;5.05;;
8564;SDS011;4320;51.498;6.556;2023-11-19T07:58:40;27.23;;;5.25;;
8564;SDS011;4320;51.498;6.556;2023-11-19T08:01:06;28.73;;;5.47;;
8564;SDS011;4320;51.498;6.556;2023-11-19T08:03:32;25.08;;;5.55;;
8564;SDS011;4320;51.498;6.556;2023-11-19T08:05:59;28.02;;;5.63;;
8564;SDS011;4320;51.498;6.556;2023-11-19T08:08:25;23.23;;;5.35;;
8564;SDS011;4320;51.498;6.556;2023-11-19T08:10:51;25.88;;;4.80;;
8564;SDS011;4320;51.498;6.556;2023-11-19T08:13:18;25.10;;;4.82;;
8564;SDS011;4320;51.498;6.556;2023-11-19T08:15:45;26.50;;;5.10;;
8564;SDS011;4320;51.498;6.556;2023-11-19T08:18:11;22.88;;;5.55;;
8564;SDS011;4320;51.498;6.556;2023-11-19T08:20:36;23.65;;;5.18;;
8564;SDS011;4320;51.498;6.556;2023-11-19T08:23:02;22.70;;;4.70;;
8564;SDS011;4320;51.498;6.556;2023-11-19T08:25:28;23.38;;;4.53;;
8564;SDS011;4320;51.498;6.556;2023-11-19T08:27:54;22.08;;;5.38;;
8564;SDS011;4320;51.498;6.556;2023-11-19T08:30:20;20.10;;;5.07;;
8564;SDS011;4320;51.498;6.556;2023-11-19T08:32:45;33.03;;;5.75;;
8564;SDS011;4320;51.498;6.556;2023-11-19T08:35:11;21.33;;;5.43;;
8564;SDS011;4320;51.498;6.556;2023-11-19T08:37:36;21.00;;;4.97;;
8564;SDS011;4320;51.498;6.556;2023-11-19T08:40:03;19.48;;;5.32;;
8564;SDS011;4320;51.498;6.556;2023-11-19T08:42:29;20.20;;;5.38;;
8564;SDS011;4320;51.498;6.556;2023-11-19T08:44:55;24.73;;;5.75;;
8564;SDS011;4320;51.498;6.556;2023-11-19T08:47:21;19.42;;;5.28;;
8564;SDS011;4320;51.498;6.556;2023-11-19T08:49:48;21.75;;;4.90;;
8564;SDS011;4320;51.498;6.556;2023-11-19T08:52:17;24.05;;;5.20;;
8564;SDS011;4320;51.498;6.556;2023-11-19T08:54:43;26.98;;;6.32;;
8564;SDS011;4320;51.498;6.556;2023-11-19T08:57:08;21.33;;;5.53;;
8564;SDS011;4320;51.498;6.556;2023-11-19T08:59:34;26.15;;;5.97;;
8564;SDS011;4320;51.498;6.556;2023-11-19T09:02:00;16.80;;;5.10;;
8564;SDS011;4320;51.498;6.556;2023-11-19T09:04:26;18.90;;;4.95;;
8564;SDS011;4320;51.498;6.556;2023-11-19T09:06:52;18.25;;;4.50;;
8564;SDS011;4320;51.498;6.556;2023-11-19T09:09:18;17.88;;;4.78;;
8564;SDS011;4320;51.498;6.556;2023-11-19T09:11:43;24.08;;;5.10;;
8564;SDS011;4320;51.498;6.556;2023-11-19T09:14:09;22.25;;;5.10;;
8564;SDS011;4320;51.498;6.556;2023-11-19T09:16:35;19.25;;;4.97;;
8564;SDS011;4320;51.498;6.556;2023-11-19T09:19:00;23.15;;;5.72;;
8564;SDS011;4320;51.498;6.556;2023-11-19T09:21:27;18.40;;;5.05;;
8564;SDS011;4320;51.498;6.556;2023-11-19T09:23:54;22.52;;;5.43;;
8564;SDS011;4320;51.498;6.556;2023-11-19T09:26:20;20.75;;;5.15;;
8564;SDS011;4320;51.498;6.556;2023-11-19T09:28:46;24.63;;;5.82;;
8564;SDS011;4320;51.498;6.556;2023-11-19T09:31:15;22.35;;;4.90;;
8564;SDS011;4320;51.498;6.556;2023-11-19T09:33:41;20.38;;;5.63;;
8564;SDS011;4320;51.498;6.556;2023-11-19T09:36:07;22.13;;;5.22;;
8564;SDS011;4320;51.498;6.556;2023-11-19T09:38:33;23.80;;;5.13;;
8564;SDS011;4320;51.498;6.556;2023-11-19T09:41:03;24.67;;;6.05;;
8564;SDS011;4320;51.498;6.556;2023-11-19T09:43:33;20.95;;;5.38;;
8564;SDS011;4320;51.498;6.556;2023-11-19T09:45:59;23.45;;;5.28;;
8564;SDS011;4320;51.498;6.556;2023-11-19T09:48:32;19.27;;;4.90;;
8564;SDS011;4320;51.498;6.556;2023-11-19T09:50:58;27.25;;;5.82;;
8564;SDS011;4320;51.498;6.556;2023-11-19T09:53:25;24.23;;;5.07;;
8564;SDS011;4320;51.498;6.556;2023-11-19T09:55:51;20.77;;;5.32;;
8564;SDS011;4320;51.498;6.556;2023-11-19T09:58:18;23.25;;;5.10;;
8564;SDS011;4320;51.498;6.556;2023-11-19T10:00:44;21.08;;;5.53;;
8564;SDS011;4320;51.498;6.556;2023-11-19T10:03:10;21.80;;;5.15;;
8564;SDS011;4320;51.498;6.556;2023-11-19T10:05:37;24.48;;;5.88;;
8564;SDS011;4320;51.498;6.556;2023-11-19T10:08:04;19.30;;;4.85;;
8564;SDS011;4320;51.498;6.556;2023-11-19T10:10:30;23.30;;;5.05;;
8564;SDS011;4320;51.498;6.556;2023-11-19T10:12:55;23.25;;;5.75;;
8564;SDS011;4320;51.498;6.556;2023-11-19T10:15:21;25.88;;;5.40;;
8564;SDS011;4320;51.498;6.556;2023-11-19T10:17:52;21.80;;;5.38;;
8564;SDS011;4320;51.498;6.556;2023-11-19T10:20:23;18.90;;;4.88;;
8564;SDS011;4320;51.498;6.556;2023-11-19T10:22:52;25.55;;;5.00;;
8564;SDS011;4320;51.498;6.556;2023-11-19T10:25:24;17.30;;;5.72;;
8564;SDS011;4320;51.498;6.556;2023-11-19T10:27:51;25.90;;;7.90;;
8564;SDS011;4320;51.498;6.556;2023-11-19T10:30:20;27.00;;;6.50;;
8564;SDS011;4320;51.498;6.556;2023-11-19T10:33:09;20.92;;;6.00;;
8564;SDS011;4320;51.498;6.556;2023-11-19T10:35:52;22.63;;;5.60;;
8564;SDS011;4320;51.498;6.556;2023-11-19T10:38:22;25.27;;;5.03;;
8564;SDS011;4320;51.498;6.556;2023-11-19T10:40:49;20.27;;;5.20;;
8564;SDS011;4320;51.498;6.556;2023-11-19T10:43:19;22.15;;;5.28;;
8564;SDS011;4320;51.498;6.556;2023-11-19T10:45:47;23.00;;;6.05;;
8564;SDS011;4320;51.498;6.556;2023-11-19T10:48:13;21.13;;;5.43;;
8564;SDS011;4320;51.498;6.556;2023-11-19T10:50:40;23.50;;;5.72;;
8564;SDS011;4320;51.498;6.556;2023-11-19T10:53:08;20.48;;;4.85;;
8564;SDS011;4320;51.498;6.556;2023-11-19T10:55:37;26.20;;;5.30;;
8564;SDS011;4320;51.498;6.556;2023-11-19T10:58:06;20.70;;;4.70;;
8564;SDS011;4320;51.498;6.556;2023-11-19T11:00:45;25.45;;;6.15;;
8564;SDS011;4320;51.498;6.556;2023-11-19T11:03:24;21.10;;;5.40;;
8564;SDS011;4320;51.498;6.556;2023-11-19T11:05:51;21.45;;;4.40;;
8564;SDS011;4320;51.498;6.556;2023-11-19T11:08:18;19.92;;;5.05;;
8564;SDS011;4320;51.498;6.556;2023-11-19T11:10:46;24.90;;;6.18;;
8564;SDS011;4320;51.498;6.556;2023-11-19T11:13:18;22.33;;;5.78;;
8564;SDS011;4320;51.498;6.556;2023-11-19T11:15:44;17.35;;;4.70;;
8564;SDS011;4320;51.498;6.556;2023-11-19T11:18:12;15.73;;;5.05;;
8564;SDS011;4320;51.498;6.556;2023-11-19T11:20:39;17.42;;;4.55;;
8564;SDS011;4320;51.498;6.556;2023-11-19T11:31:36;21.45;;;5.20;;
8564;SDS011;4320;51.498;6.556;2023-11-19T11:39:20;15.05;;;5.25;;
8564;SDS011;4320;51.498;6.556;2023-11-19T11:41:47;23.75;;;5.15;;
8564;SDS011;4320;51.498;6.556;2023-11-19T11:47:24;21.35;;;4.68;;
8564;SDS011;4320;51.498;6.556;2023-11-19T11:49:50;16.17;;;4.45;;
8564;SDS011;4320;51.498;6.556;2023-11-19T11:52:17;18.50;;;4.63;;
8564;SDS011;4320;51.498;6.556;2023-11-19T11:54:43;16.17;;;4.18;;
8564;SDS011;4320;51.498;6.556;2023-11-19T11:59:46;18.77;;;4.70;;
8564;SDS011;4320;51.498;6.556;2023-11-19T12:02:15;11.82;;;3.65;;
8564;SDS011;4320;51.498;6.556;2023-11-19T12:04:46;19.77;;;4.60;;
8564;SDS011;4320;51.498;6.556;2023-11-19T12:07:18;18.55;;;4.50;;
8564;SDS011;4320;51.498;6.556;2023-11-19T12:09:50;24.80;;;4.53;;
8564;SDS011;4320;51.498;6.556;2023-11-19T12:12:32;20.92;;;4.85;;
8564;SDS011;4320;51.498;6.556;2023-11-19T12:20:09;15.93;;;4.22;;
8564;SDS011;4320;51.498;6.556;2023-11-19T12:22:40;16.13;;;4.63;;
8564;SDS011;4320;51.498;6.556;2023-11-19T12:25:12;21.08;;;4.43;;
8564;SDS011;4320;51.498;6.556;2023-11-19T12:27:47;18.63;;;4.28;;
8564;SDS011;4320;51.498;6.556;2023-11-19T12:30:26;16.63;;;3.95;;
8564;SDS011;4320;51.498;6.556;2023-11-19T12:32:52;18.27;;;4.00;;
8564;SDS011;4320;51.498;6.556;2023-11-19T12:35:19;15.18;;;4.90;;
8564;SDS011;4320;51.498;6.556;2023-11-19T12:37:45;14.38;;;3.80;;
8564;SDS011;4320;51.498;6.556;2023-11-19T12:40:16;19.85;;;4.63;;
8564;SDS011;4320;51.498;6.556;2023-11-19T12:42:43;17.25;;;4.60;;
8564;SDS011;4320;51.498;6.556;2023-11-19T12:45:09;16.73;;;4.30;;
8564;SDS011;4320;51.498;6.556;2023-11-19T12:47:41;21.45;;;7.82;;
8564;SDS011;4320;51.498;6.556;2023-11-19T12:50:07;14.77;;;4.68;;
8564;SDS011;4320;51.498;6.556;2023-11-19T12:52:37;15.13;;;3.92;;
8564;SDS011;4320;51.498;6.556;2023-11-19T12:55:24;14.88;;;3.45;;
8564;SDS011;4320;51.498;6.556;2023-11-19T12:57:50;11.38;;;3.53;;
8564;SDS011;4320;51.498;6.556;2023-11-19T13:00:20;13.13;;;4.00;;
8564;SDS011;4320;51.498;6.556;2023-11-19T13:02:50;14.15;;;3.85;;
8564;SDS011;4320;51.498;6.556;2023-11-19T13:05:30;16.15;;;4.15;;
8564;SDS011;4320;51.498;6.556;2023-11-19T13:08:07;12.23;;;4.10;;
8564;SDS011;4320;51.498;6.556;2023-11-19T13:10:55;14.02;;;4.35;;
8564;SDS011;4320;51.498;6.556;2023-11-19T13:13:20;15.55;;;3.97;;
8564;SDS011;4320;51.498;6.556;2023-11-19T13:15:45;22.60;;;4.40;;
8564;SDS011;4320;51.498;6.556;2023-11-19T13:18:12;16.70;;;3.50;;
8564;SDS011;4320;51.498;6.556;2023-11-19T13:20:38;19.77;;;4.25;;
8564;SDS011;4320;51.498;6.556;2023-11-19T13:23:04;18.83;;;4.13;;
8564;SDS011;4320;51.498;6.556;2023-11-19T13:25:31;17.42;;;4.20;;
8564;SDS011;4320;51.498;6.556;2023-11-19T13:27:57;20.70;;;4.25;;
8564;SDS011;4320;51.498;6.556;2023-11-19T13:30:24;16.23;;;3.90;;
8564;SDS011;4320;51.498;6.556;2023-11-19T13:32:51;18.17;;;3.83;;
8564;SDS011;4320;51.498;6.556;2023-11-19T13:35:17;15.45;;;3.83;;
8564;SDS011;4320;51.498;6.556;2023-11-19T13:37:46;17.85;;;6.82;;
8564;SDS011;4320;51.498;6.556;2023-11-19T13:40:12;17.90;;;6.50;;
8564;SDS011;4320;51.498;6.556;2023-11-19T13:42:41;17.02;;;4.70;;
8564;SDS011;4320;51.498;6.556;2023-11-19T13:45:08;19.67;;;4.90;;
8564;SDS011;4320;51.498;6.556;2023-11-19T13:47:41;20.00;;;4.00;;
8564;SDS011;4320;51.498;6.556;2023-11-19T13:50:08;17.25;;;4.55;;
8564;SDS011;4320;51.498;6.556;2023-11-19T13:52:35;20.52;;;5.40;;
8564;SDS011;4320;51.498;6.556;2023-11-19T13:55:03;20.10;;;3.80;;
8564;SDS011;4320;51.498;6.556;2023-11-19T13:57:33;11.82;;;3.88;;
8564;SDS011;4320;51.498;6.556;2023-11-19T13:59:59;16.77;;;3.67;;
8564;SDS011;4320;51.498;6.556;2023-11-19T14:02:26;16.05;;;3.95;;
8564;SDS011;4320;51.498;6.556;2023-11-19T14:04:51;16.95;;;4.90;;
8564;SDS011;4320;51.498;6.556;2023-11-19T14:07:17;20.35;;;4.82;;
8564;SDS011;4320;51.498;6.556;2023-11-19T14:09:43;20.83;;;4.35;;
8564;SDS011;4320;51.498;6.556;2023-11-19T14:12:08;16.35;;;4.38;;
8564;SDS011;4320;51.498;6.556;2023-11-19T14:14:34;22.27;;;4.47;;
8564;SDS011;4320;51.498;6.556;2023-11-19T14:17:01;21.33;;;5.22;;
8564;SDS011;4320;51.498;6.556;2023-11-19T14:19:28;17.60;;;5.63;;
8564;SDS011;4320;51.498;6.556;2023-11-19T14:21:54;26.40;;;7.07;;
8564;SDS011;4320;51.498;6.556;2023-11-19T14:24:19;50.78;;;19.35;;
8564;SDS011;4320;51.498;6.556;2023-11-19T14:26:46;21.75;;;6.43;;
8564;SDS011;4320;51.498;6.556;2023-11-19T14:29:12;15.20;;;4.38;;
8564;SDS011;4320;51.498;6.556;2023-11-19T14:31:38;31.95;;;5.25;;
8564;SDS011;4320;51.498;6.556;2023-11-19T14:34:04;18.10;;;4.45;;
8564;SDS011;4320;51.498;6.556;2023-11-19T14:36:30;21.63;;;4.93;;
8564;SDS011;4320;51.498;6.556;2023-11-19T14:38:56;20.90;;;4.60;;
8564;SDS011;4320;51.498;6.556;2023-11-19T14:41:23;18.95;;;4.65;;
8564;SDS011;4320;51.498;6.556;2023-11-19T14:43:49;19.17;;;4.63;;
8564;SDS011;4320;51.498;6.556;2023-11-19T14:46:15;15.82;;;4.45;;
8564;SDS011;4320;51.498;6.556;2023-11-19T14:48:41;19.08;;;4.82;;
8564;SDS011;4320;51.498;6.556;2023-11-19T14:51:06;14.15;;;3.80;;
8564;SDS011;4320;51.498;6.556;2023-11-19T14:53:32;18.00;;;5.10;;
8564;SDS011;4320;51.498;6.556;2023-11-19T14:55:58;14.82;;;3.83;;
8564;SDS011;4320;51.498;6.556;2023-11-19T14:58:23;16.73;;;4.68;;
8564;SDS011;4320;51.498;6.556;2023-11-19T15:00:51;23.80;;;5.35;;
8564;SDS011;4320;51.498;6.556;2023-11-19T15:03:16;12.90;;;4.20;;
8564;SDS011;4320;51.498;6.556;2023-11-19T15:05:44;21.70;;;5.75;;
8564;SDS011;4320;51.498;6.556;2023-11-19T15:08:11;11.70;;;3.65;;
8564;SDS011;4320;51.498;6.556;2023-11-19T15:10:36;20.50;;;8.45;;
8564;SDS011;4320;51.498;6.556;2023-11-19T15:13:02;17.95;;;3.83;;
8564;SDS011;4320;51.498;6.556;2023-11-19T15:15:29;18.08;;;5.22;;
8564;SDS011;4320;51.498;6.556;2023-11-19T15:17:54;18.52;;;4.55;;
8564;SDS011;4320;51.498;6.556;2023-11-19T15:20:20;16.25;;;5.28;;
8564;SDS011;4320;51.498;6.556;2023-11-19T15:22:46;22.50;;;6.25;;
8564;SDS011;4320;51.498;6.556;2023-11-19T15:25:12;19.63;;;4.55;;
8564;SDS011;4320;51.498;6.556;2023-11-19T15:27:38;21.70;;;5.15;;
8564;SDS011;4320;51.498;6.556;2023-11-19T15:30:04;20.88;;;6.03;;
8564;SDS011;4320;51.498;6.556;2023-11-19T15:32:30;20.33;;;5.15;;